AMX364 MMMX-MMLP
Flight info
| Callsign | AMX364 |
|---|---|
| Flight time | N/A |
| Altitude | 38000 |
| Route | SEBON3A SEBON UT124 GDL UJ12 TNY DCT OLESI UJ20 LAP |
| Aircraft | B738/M-SDE2E3FGHIRWXY/LB1 |
Departure
| Time | N/A |
|---|---|
| Airport | Mexico City Benito Juárez International Airport (MMMX) |
Arrival
| Time | 2026-04-27 01:47 |
|---|---|
| Airport | Manuel Márquez de León International Airport (MMLP) |
| Time | Latitude | Longitude | Altitude | Speed | Heading |
|---|---|---|---|---|---|
| 2026-04-27 00:57 | 22.91620 | -107.10708 | 38002 ft | 448 kts | 304° |
| 2026-04-27 00:58 | 22.93399 | -107.13480 | 38002 ft | 448 kts | 304° |
| 2026-04-27 00:58 | 22.96958 | -107.19028 | 38002 ft | 448 kts | 304° |
| 2026-04-27 00:59 | 23.00514 | -107.24579 | 38002 ft | 448 kts | 304° |
| 2026-04-27 00:59 | 23.04067 | -107.30129 | 38002 ft | 448 kts | 304° |
| 2026-04-27 01:00 | 23.07617 | -107.35683 | 38002 ft | 448 kts | 304° |
| 2026-04-27 01:00 | 23.11168 | -107.41243 | 38002 ft | 448 kts | 304° |
| 2026-04-27 01:01 | 23.14691 | -107.46766 | 38001 ft | 448 kts | 304° |
| 2026-04-27 01:01 | 23.18235 | -107.52328 | 38001 ft | 448 kts | 304° |
| 2026-04-27 01:02 | 23.21777 | -107.57891 | 38001 ft | 448 kts | 304° |
| 2026-04-27 01:02 | 23.25317 | -107.63458 | 38001 ft | 447 kts | 304° |
| 2026-04-27 01:03 | 23.28856 | -107.69030 | 38001 ft | 447 kts | 304° |
| 2026-04-27 01:03 | 23.32388 | -107.74597 | 38001 ft | 447 kts | 304° |
| 2026-04-27 01:04 | 23.35922 | -107.80172 | 38001 ft | 447 kts | 304° |
| 2026-04-27 01:04 | 23.39450 | -107.85745 | 38001 ft | 447 kts | 304° |
| 2026-04-27 01:05 | 23.42979 | -107.91326 | 38001 ft | 447 kts | 304° |
| 2026-04-27 01:05 | 23.46503 | -107.96905 | 38001 ft | 447 kts | 304° |
| 2026-04-27 01:06 | 23.50027 | -108.02490 | 38001 ft | 447 kts | 304° |
| 2026-04-27 01:06 | 23.53551 | -108.08080 | 38001 ft | 447 kts | 304° |
| 2026-04-27 01:07 | 23.57046 | -108.13633 | 38001 ft | 447 kts | 304° |
| 2026-04-27 01:07 | 23.59970 | -108.18326 | 37998 ft | 447 kts | 301° |
| 2026-04-27 01:09 | 23.66315 | -108.42569 | 38001 ft | 447 kts | 283° |
| 2026-04-27 01:09 | 23.67049 | -108.45858 | 38001 ft | 447 kts | 283° |
| 2026-04-27 01:10 | 23.68528 | -108.52443 | 38001 ft | 447 kts | 284° |
| 2026-04-27 01:10 | 23.69769 | -108.57965 | 38001 ft | 447 kts | 283° |
| 2026-04-27 01:11 | 23.70996 | -108.63439 | 38001 ft | 447 kts | 283° |
| 2026-04-27 01:11 | 23.72957 | -108.72217 | 38001 ft | 447 kts | 283° |
| 2026-04-27 01:12 | 23.74428 | -108.78816 | 38001 ft | 447 kts | 283° |
| 2026-04-27 01:12 | 23.75647 | -108.84296 | 38001 ft | 447 kts | 283° |
| 2026-04-27 01:13 | 23.76866 | -108.89786 | 38001 ft | 447 kts | 283° |
| 2026-04-27 01:13 | 23.78822 | -108.98617 | 38001 ft | 447 kts | 283° |
| 2026-04-27 01:14 | 23.80280 | -109.05218 | 38001 ft | 447 kts | 283° |
| 2026-04-27 01:14 | 23.81490 | -109.10704 | 38001 ft | 447 kts | 283° |
| 2026-04-27 01:15 | 23.83179 | -109.18379 | 38001 ft | 447 kts | 283° |
| 2026-04-27 01:15 | 23.84628 | -109.24979 | 38001 ft | 447 kts | 283° |
| 2026-04-27 01:16 | 23.86090 | -109.31579 | 38001 ft | 447 kts | 283° |
| 2026-04-27 01:16 | 23.87559 | -109.38206 | 37633 ft | 449 kts | 283° |
| 2026-04-27 01:16 | 23.88289 | -109.41506 | 37386 ft | 446 kts | 283° |
| 2026-04-27 01:17 | 23.88771 | -109.43686 | 37219 ft | 445 kts | 283° |
| 2026-04-27 01:17 | 23.89741 | -109.48085 | 36895 ft | 445 kts | 283° |
| 2026-04-27 01:17 | 23.90465 | -109.51374 | 36523 ft | 444 kts | 283° |
| 2026-04-27 01:17 | 23.90942 | -109.53544 | 36107 ft | 444 kts | 283° |
| 2026-04-27 01:18 | 23.91654 | -109.56823 | 35495 ft | 443 kts | 283° |
| 2026-04-27 01:18 | 23.92597 | -109.61208 | 34661 ft | 443 kts | 283° |
| 2026-04-27 01:18 | 23.93064 | -109.63382 | 34273 ft | 442 kts | 283° |
| 2026-04-27 01:18 | 23.93997 | -109.67729 | 33629 ft | 437 kts | 283° |
| 2026-04-27 01:19 | 23.94689 | -109.70951 | 33137 ft | 434 kts | 283° |
| 2026-04-27 01:19 | 23.95375 | -109.74148 | 32648 ft | 430 kts | 283° |
| 2026-04-27 01:19 | 23.96057 | -109.77318 | 32134 ft | 428 kts | 283° |
| 2026-04-27 01:19 | 23.96738 | -109.80473 | 31632 ft | 425 kts | 283° |
| 2026-04-27 01:20 | 23.97187 | -109.82554 | 31307 ft | 423 kts | 283° |
| 2026-04-27 01:20 | 23.97861 | -109.85671 | 30830 ft | 420 kts | 283° |
| 2026-04-27 01:20 | 23.98178 | -109.87139 | 30603 ft | 418 kts | 283° |
| 2026-04-27 01:20 | 23.98839 | -109.90206 | 30133 ft | 415 kts | 283° |
| 2026-04-27 01:21 | 23.99492 | -109.93241 | 29636 ft | 404 kts | 283° |
| 2026-04-27 01:21 | 24.00127 | -109.96193 | 29095 ft | 395 kts | 283° |
| 2026-04-27 01:21 | 24.00541 | -109.98119 | 28727 ft | 390 kts | 283° |
| 2026-04-27 01:21 | 24.01153 | -110.00973 | 28174 ft | 382 kts | 283° |
| 2026-04-27 01:22 | 24.01754 | -110.03776 | 27620 ft | 375 kts | 283° |
| 2026-04-27 01:22 | 24.02542 | -110.07453 | 26881 ft | 367 kts | 283° |
| 2026-04-27 01:22 | 24.03119 | -110.10152 | 26333 ft | 362 kts | 283° |
| 2026-04-27 01:22 | 24.03689 | -110.12817 | 25779 ft | 357 kts | 283° |
| 2026-04-27 01:23 | 24.04251 | -110.15449 | 25152 ft | 355 kts | 283° |
| 2026-04-27 01:23 | 24.05024 | -110.18002 | 24446 ft | 354 kts | 298° |
| 2026-04-27 01:23 | 24.05963 | -110.19456 | 23776 ft | 357 kts | 314° |
| 2026-04-27 01:23 | 24.08868 | -110.21351 | 22316 ft | 371 kts | 344° |
| 2026-04-27 01:24 | 24.10521 | -110.21675 | 22240 ft | 357 kts | 357° |
| 2026-04-27 01:24 | 24.12903 | -110.21388 | 22105 ft | 338 kts | 17° |
| 2026-04-27 01:24 | 24.15034 | -110.20335 | 21300 ft | 341 kts | 33° |
| 2026-04-27 01:24 | 24.17421 | -110.17931 | 19522 ft | 365 kts | 52° |
| 2026-04-27 01:25 | 24.18336 | -110.16332 | 18810 ft | 369 kts | 64° |
| 2026-04-27 01:25 | 24.19105 | -110.13672 | 18009 ft | 366 kts | 82° |
| 2026-04-27 01:25 | 24.19149 | -110.10940 | 17542 ft | 354 kts | 97° |
| 2026-04-27 01:25 | 24.18693 | -110.08338 | 17112 ft | 341 kts | 102° |
| 2026-04-27 01:26 | 24.18219 | -110.05833 | 16677 ft | 331 kts | 101° |
| 2026-04-27 01:26 | 24.17761 | -110.03374 | 16029 ft | 329 kts | 102° |
| 2026-04-27 01:26 | 24.17293 | -110.00922 | 15233 ft | 331 kts | 102° |
| 2026-04-27 01:26 | 24.16801 | -109.98485 | 14473 ft | 332 kts | 103° |
| 2026-04-27 01:27 | 24.16267 | -109.96026 | 13876 ft | 332 kts | 104° |
| 2026-04-27 01:27 | 24.15698 | -109.93599 | 13474 ft | 325 kts | 105° |
| 2026-04-27 01:27 | 24.15294 | -109.91996 | 13238 ft | 320 kts | 106° |
| 2026-04-27 01:27 | 24.14527 | -109.88915 | 12641 ft | 315 kts | 105° |
| 2026-04-27 01:28 | 24.13975 | -109.86593 | 12037 ft | 316 kts | 104° |
| 2026-04-27 01:28 | 24.13606 | -109.85050 | 11641 ft | 317 kts | 105° |
| 2026-04-27 01:28 | 24.13035 | -109.82722 | 11139 ft | 315 kts | 105° |
| 2026-04-27 01:28 | 24.12418 | -109.79736 | 11098 ft | 285 kts | 101° |
| 2026-04-27 01:29 | 24.12022 | -109.77641 | 10625 ft | 281 kts | 103° |
| 2026-04-27 01:29 | 24.11541 | -109.75514 | 9664 ft | 295 kts | 104° |
| 2026-04-27 01:29 | 24.11020 | -109.73300 | 8914 ft | 300 kts | 104° |
| 2026-04-27 01:29 | 24.10435 | -109.71193 | 8871 ft | 278 kts | 117° |
| 2026-04-27 01:30 | 24.09202 | -109.69669 | 8479 ft | 270 kts | 151° |
| 2026-04-27 01:30 | 24.07475 | -109.69043 | 8224 ft | 253 kts | 176° |
| 2026-04-27 01:30 | 24.05847 | -109.69220 | 8329 ft | 221 kts | 197° |
| 2026-04-27 01:30 | 24.04468 | -109.69810 | 8098 ft | 210 kts | 208° |
| 2026-04-27 01:31 | 24.03252 | -109.70670 | 7756 ft | 210 kts | 219° |
| 2026-04-27 01:31 | 24.02164 | -109.71763 | 7513 ft | 215 kts | 228° |
| 2026-04-27 01:31 | 24.01240 | -109.73055 | 7434 ft | 215 kts | 238° |
| 2026-04-27 01:31 | 24.00752 | -109.73986 | 7460 ft | 211 kts | 244° |
| 2026-04-27 01:32 | 24.00092 | -109.75969 | 7459 ft | 208 kts | 257° |
| 2026-04-27 01:32 | 23.99821 | -109.77553 | 7282 ft | 215 kts | 262° |
| 2026-04-27 01:32 | 23.99663 | -109.79170 | 7294 ft | 211 kts | 267° |
| 2026-04-27 01:32 | 23.99640 | -109.80227 | 7290 ft | 210 kts | 269° |
| 2026-04-27 01:33 | 23.99597 | -109.82399 | 7161 ft | 213 kts | 270° |
| 2026-04-27 01:33 | 23.99654 | -109.83972 | 7223 ft | 208 kts | 276° |
| 2026-04-27 01:33 | 23.99873 | -109.85564 | 7131 ft | 211 kts | 279° |
| 2026-04-27 01:33 | 24.00067 | -109.87150 | 7122 ft | 209 kts | 276° |
| 2026-04-27 01:34 | 24.00192 | -109.88688 | 7180 ft | 204 kts | 275° |
| 2026-04-27 01:34 | 24.00292 | -109.90239 | 7125 ft | 206 kts | 274° |
| 2026-04-27 01:34 | 24.00423 | -109.91804 | 7073 ft | 207 kts | 278° |
| 2026-04-27 01:34 | 24.00641 | -109.93344 | 7115 ft | 202 kts | 273° |
| 2026-04-27 01:35 | 24.00539 | -109.94895 | 6972 ft | 208 kts | 265° |
| 2026-04-27 01:35 | 24.00523 | -109.96440 | 7079 ft | 202 kts | 272° |
| 2026-04-27 01:35 | 24.00661 | -109.97992 | 6986 ft | 208 kts | 279° |
| 2026-04-27 01:35 | 24.00942 | -109.99560 | 6922 ft | 213 kts | 282° |
| 2026-04-27 01:36 | 24.01294 | -110.01144 | 6880 ft | 215 kts | 285° |
| 2026-04-27 01:36 | 24.01694 | -110.02709 | 6922 ft | 213 kts | 285° |
| 2026-04-27 01:36 | 24.02091 | -110.04260 | 6980 ft | 210 kts | 284° |
| 2026-04-27 01:36 | 24.02433 | -110.05819 | 6961 ft | 212 kts | 282° |
| 2026-04-27 01:37 | 24.02737 | -110.07395 | 6965 ft | 210 kts | 282° |
| 2026-04-27 01:37 | 24.03043 | -110.08978 | 6693 ft | 217 kts | 281° |
| 2026-04-27 01:37 | 24.03359 | -110.10634 | 6359 ft | 224 kts | 282° |
| 2026-04-27 01:37 | 24.03674 | -110.12288 | 6257 ft | 220 kts | 281° |
| 2026-04-27 01:38 | 24.03874 | -110.13936 | 6110 ft | 219 kts | 267° |
| 2026-04-27 01:38 | 24.03504 | -110.15553 | 5849 ft | 223 kts | 243° |
| 2026-04-27 01:38 | 24.01198 | -110.17666 | 5444 ft | 223 kts | 201° |
| 2026-04-27 01:39 | 23.99733 | -110.18274 | 5175 ft | 227 kts | 204° |
| 2026-04-27 01:39 | 23.98360 | -110.19079 | 5124 ft | 219 kts | 215° |
| 2026-04-27 01:39 | 23.97571 | -110.19739 | 5079 ft | 215 kts | 220° |
| 2026-04-27 01:39 | 23.96119 | -110.21212 | 4955 ft | 210 kts | 225° |
| 2026-04-27 01:40 | 23.95120 | -110.22387 | 4771 ft | 213 kts | 230° |
| 2026-04-27 01:40 | 23.94186 | -110.23658 | 4499 ft | 218 kts | 233° |
| 2026-04-27 01:40 | 23.93590 | -110.24546 | 4356 ft | 218 kts | 235° |
| 2026-04-27 01:40 | 23.92487 | -110.26381 | 4088 ft | 220 kts | 239° |
| 2026-04-27 01:41 | 23.91773 | -110.27864 | 3908 ft | 219 kts | 246° |
| 2026-04-27 01:41 | 23.91273 | -110.29385 | 3924 ft | 207 kts | 255° |
| 2026-04-27 01:41 | 23.90975 | -110.30933 | 3654 ft | 211 kts | 261° |
| 2026-04-27 01:41 | 23.90762 | -110.32535 | 3354 ft | 215 kts | 263° |
| 2026-04-27 01:42 | 23.90646 | -110.33640 | 3141 ft | 218 kts | 264° |
| 2026-04-27 01:42 | 23.90532 | -110.35278 | 2994 ft | 213 kts | 266° |
| 2026-04-27 01:42 | 23.90434 | -110.36877 | 2728 ft | 205 kts | 270° |
| 2026-04-27 01:42 | 23.90671 | -110.38322 | 2534 ft | 184 kts | 297° |
| 2026-04-27 01:43 | 23.91853 | -110.39357 | 2258 ft | 165 kts | 345° |
| 2026-04-27 01:43 | 23.93000 | -110.39392 | 1826 ft | 168 kts | 8° |
| 2026-04-27 01:43 | 23.94138 | -110.39061 | 1377 ft | 171 kts | 19° |
| 2026-04-27 01:43 | 23.95223 | -110.38592 | 1175 ft | 163 kts | 20° |
| 2026-04-27 01:44 | 23.96281 | -110.38209 | 966 ft | 155 kts | 15° |
| 2026-04-27 01:44 | 23.97305 | -110.37944 | 767 ft | 150 kts | 10° |
| 2026-04-27 01:44 | 23.98288 | -110.37756 | 745 ft | 140 kts | 8° |
| 2026-04-27 01:44 | 23.99258 | -110.37583 | 668 ft | 142 kts | 8° |
| 2026-04-27 01:45 | 24.00236 | -110.37403 | 619 ft | 144 kts | 9° |
| 2026-04-27 01:45 | 24.01229 | -110.37227 | 554 ft | 146 kts | 8° |
| 2026-04-27 01:45 | 24.02236 | -110.37052 | 490 ft | 147 kts | 9° |
| 2026-04-27 01:45 | 24.03249 | -110.36856 | 412 ft | 149 kts | 8° |
| 2026-04-27 01:46 | 24.04289 | -110.36699 | 313 ft | 152 kts | 7° |
| 2026-04-27 01:46 | 24.05342 | -110.36547 | 222 ft | 154 kts | 7° |
| 2026-04-27 01:46 | 24.06042 | -110.36441 | 124 ft | 152 kts | 7° |
| 2026-04-27 01:46 | 24.07350 | -110.36243 | 72 ft | 123 kts | 6° |
| 2026-04-27 01:47 | 24.07959 | -110.36154 | 74 ft | 59 kts | 7° |
| 2026-04-27 01:47 | 24.08154 | -110.36127 | 73 ft | 31 kts | 7° |
| 2026-04-27 01:47 | 24.08353 | -110.36106 | 73 ft | 14 kts | 109° |
| 2026-04-27 01:47 | 24.08283 | -110.36099 | 72 ft | 20 kts | 188° |
| 2026-04-27 01:48 | 24.08066 | -110.36136 | 71 ft | 38 kts | 188° |
| 2026-04-27 01:48 | 24.07826 | -110.36174 | 72 ft | 19 kts | 187° |
| 2026-04-27 01:48 | 24.07746 | -110.36278 | 78 ft | 20 kts | 274° |
| 2026-04-27 01:48 | 24.07758 | -110.36412 | 81 ft | 18 kts | 275° |
| 2026-04-27 01:49 | 24.07769 | -110.36490 | 80 ft | 8 kts | 280° |
| 2026-04-27 01:49 | 24.07762 | -110.36550 | 81 ft | 8 kts | 253° |
| 2026-04-27 01:49 | 24.07762 | -110.36587 | 80 ft | 5 kts | 276° |
| 2026-04-27 01:49 | 24.07764 | -110.36614 | 80 ft | 0 kts | 276° |